Galena, Missouri
Current Conditions -  °F | °C
As of 12:15 AM on Saturday 29 Nov 2014 (Local Time) from KFWB Reporting Station
Clear Clear  
Wind Chill: 11°   Ceiling: Unl
Heat Index: 11°   Visibility: 10mi
Dew Point:   Wind: 9mph
Humidity: 67%   Direction: 210°SSW
Pressure: 29.87"   Gusts: NA
Location:  36.81°N, 93.47°W
Report Text: KFWB 290615Z AUTO 21008KT 150V220 10SM CLR 11/05 A2987 RMK AO2
Loading
Personal Weather Stations






























Interactive Weather Map New forecast layout! Learn more

10-Day Weather Forecast

Advertisements
Track Severe Weather on mobile